sensor_id;sensor_type;location;lat;lon;timestamp;pressure;altitude;pressure_sealevel;temperature;humidity
13050;BME280;6591;51.446;5.404;2022-12-18T00:01:32;102544.91;;;0.88;49.20
13050;BME280;6591;51.446;5.404;2022-12-18T00:04:06;102542.22;;;0.83;49.30
13050;BME280;6591;51.446;5.404;2022-12-18T00:06:35;102534.28;;;0.78;49.82
13050;BME280;6591;51.446;5.404;2022-12-18T00:09:03;102534.19;;;0.75;49.29
13050;BME280;6591;51.446;5.404;2022-12-18T00:11:31;102533.25;;;0.72;49.41
13050;BME280;6591;51.446;5.404;2022-12-18T00:14:00;102536.59;;;0.66;49.96
13050;BME280;6591;51.446;5.404;2022-12-18T00:16:29;102534.78;;;0.62;49.77
13050;BME280;6591;51.446;5.404;2022-12-18T00:18:58;102545.22;;;0.62;49.99
13050;BME280;6591;51.446;5.404;2022-12-18T00:21:31;102538.22;;;0.61;50.07
13050;BME280;6591;51.446;5.404;2022-12-18T00:23:59;102532.16;;;0.62;50.59
13050;BME280;6591;51.446;5.404;2022-12-18T00:26:31;102518.22;;;0.63;50.29
13050;BME280;6591;51.446;5.404;2022-12-18T00:29:05;102511.31;;;0.65;50.71
13050;BME280;6591;51.446;5.404;2022-12-18T00:31:33;102508.75;;;0.67;50.27
13050;BME280;6591;51.446;5.404;2022-12-18T00:34:01;102512.25;;;0.67;50.32
13050;BME280;6591;51.446;5.404;2022-12-18T00:36:32;102502.63;;;0.66;50.27
13050;BME280;6591;51.446;5.404;2022-12-18T00:39:03;102505.22;;;0.65;50.20
13050;BME280;6591;51.446;5.404;2022-12-18T00:41:30;102509.53;;;0.64;49.95
13050;BME280;6591;51.446;5.404;2022-12-18T00:44:18;102496.38;;;0.60;49.89
13050;BME280;6591;51.446;5.404;2022-12-18T00:46:47;102505.09;;;0.60;50.07
13050;BME280;6591;51.446;5.404;2022-12-18T00:49:17;102498.06;;;0.58;50.19
13050;BME280;6591;51.446;5.404;2022-12-18T00:51:45;102498.06;;;0.56;50.43
13050;BME280;6591;51.446;5.404;2022-12-18T00:54:13;102499.75;;;0.54;49.68
13050;BME280;6591;51.446;5.404;2022-12-18T00:56:40;102492.75;;;0.53;50.19
13050;BME280;6591;51.446;5.404;2022-12-18T00:59:15;102492.75;;;0.53;50.79
13050;BME280;6591;51.446;5.404;2022-12-18T01:01:43;102495.34;;;0.52;50.07
13050;BME280;6591;51.446;5.404;2022-12-18T01:04:10;102504.91;;;0.51;50.27
13050;BME280;6591;51.446;5.404;2022-12-18T01:06:37;102507.53;;;0.51;50.21
13050;BME280;6591;51.446;5.404;2022-12-18T01:09:06;102509.25;;;0.51;50.66
13050;BME280;6591;51.446;5.404;2022-12-18T01:11:36;102507.47;;;0.50;50.17
13050;BME280;6591;51.446;5.404;2022-12-18T01:14:04;102521.38;;;0.49;50.51
13050;BME280;6591;51.446;5.404;2022-12-18T01:16:31;102510.91;;;0.47;50.74
13050;BME280;6591;51.446;5.404;2022-12-18T01:18:58;102521.38;;;0.47;50.51
13050;BME280;6591;51.446;5.404;2022-12-18T01:21:27;102519.56;;;0.45;50.41
13050;BME280;6591;51.446;5.404;2022-12-18T01:23:56;102523.94;;;0.46;50.46
13050;BME280;6591;51.446;5.404;2022-12-18T01:26:24;102518.66;;;0.44;50.70
13050;BME280;6591;51.446;5.404;2022-12-18T01:28:54;102523.88;;;0.44;50.34
13050;BME280;6591;51.446;5.404;2022-12-18T01:31:27;102522.16;;;0.45;50.93
13050;BME280;6591;51.446;5.404;2022-12-18T01:33:55;102510.00;;;0.45;51.00
13050;BME280;6591;51.446;5.404;2022-12-18T01:36:29;102515.22;;;0.45;50.87
13050;BME280;6591;51.446;5.404;2022-12-18T01:39:02;102518.72;;;0.46;50.55
13050;BME280;6591;51.446;5.404;2022-12-18T01:41:31;102514.38;;;0.46;50.82
13050;BME280;6591;51.446;5.404;2022-12-18T01:47:55;102510.69;;;0.38;50.66
13050;BME280;6591;51.446;5.404;2022-12-18T01:50:32;102514.22;;;0.40;50.85
13050;BME280;6591;51.446;5.404;2022-12-18T01:53:22;102513.28;;;0.38;50.92
13050;BME280;6591;51.446;5.404;2022-12-18T01:55:53;102503.81;;;0.41;50.89
13050;BME280;6591;51.446;5.404;2022-12-18T01:59:09;102497.72;;;0.41;51.13
13050;BME280;6591;51.446;5.404;2022-12-18T02:01:36;102503.03;;;0.46;51.14
13050;BME280;6591;51.446;5.404;2022-12-18T02:04:26;102509.16;;;0.46;50.96
13050;BME280;6591;51.446;5.404;2022-12-18T02:10:01;102496.03;;;0.45;50.90
13050;BME280;6591;51.446;5.404;2022-12-18T02:13:07;102495.16;;;0.44;50.04
13050;BME280;6591;51.446;5.404;2022-12-18T02:16:18;102500.34;;;0.42;50.49
13050;BME280;6591;51.446;5.404;2022-12-18T02:18:55;102492.53;;;0.44;50.25
13050;BME280;6591;51.446;5.404;2022-12-18T02:21:49;102494.22;;;0.42;49.73
13050;BME280;6591;51.446;5.404;2022-12-18T02:27:34;102497.72;;;0.41;50.16
13050;BME280;6591;51.446;5.404;2022-12-18T02:30:06;102498.50;;;0.38;50.44
13050;BME280;6591;51.446;5.404;2022-12-18T02:32:40;102502.84;;;0.36;49.68
13050;BME280;6591;51.446;5.404;2022-12-18T02:35:22;102494.91;;;0.33;49.84
13050;BME280;6591;51.446;5.404;2022-12-18T02:37:56;102489.66;;;0.32;49.53
13050;BME280;6591;51.446;5.404;2022-12-18T02:40:28;102489.63;;;0.30;50.42
13050;BME280;6591;51.446;5.404;2022-12-18T02:43:09;102486.94;;;0.27;50.22
13050;BME280;6591;51.446;5.404;2022-12-18T02:45:53;102479.09;;;0.26;49.81
13050;BME280;6591;51.446;5.404;2022-12-18T02:48:33;102481.69;;;0.26;50.36
13050;BME280;6591;51.446;5.404;2022-12-18T02:51:34;102469.44;;;0.23;50.05
13050;BME280;6591;51.446;5.404;2022-12-18T03:02:39;102466.78;;;0.22;50.34
13050;BME280;6591;51.446;5.404;2022-12-18T03:05:30;102472.00;;;0.20;50.32
13050;BME280;6591;51.446;5.404;2022-12-18T03:08:12;102471.06;;;0.18;50.22
13050;BME280;6591;51.446;5.404;2022-12-18T03:13:56;102454.44;;;0.15;50.32
13050;BME280;6591;51.446;5.404;2022-12-18T03:16:28;102450.94;;;0.14;50.33
13050;BME280;6591;51.446;5.404;2022-12-18T03:19:12;102449.13;;;0.12;50.27
13050;BME280;6591;51.446;5.404;2022-12-18T03:21:55;102447.38;;;0.11;50.29
13050;BME280;6591;51.446;5.404;2022-12-18T03:24:29;102438.63;;;0.09;50.21
13050;BME280;6591;51.446;5.404;2022-12-18T03:27:02;102442.94;;;0.07;50.28
13050;BME280;6591;51.446;5.404;2022-12-18T03:29:40;102449.88;;;0.05;50.10
13050;BME280;6591;51.446;5.404;2022-12-18T03:32:21;102451.53;;;0.03;50.34
13050;BME280;6591;51.446;5.404;2022-12-18T03:34:52;102460.31;;;0.05;50.52
13050;BME280;6591;51.446;5.404;2022-12-18T03:37:22;102455.09;;;0.05;50.21
13050;BME280;6591;51.446;5.404;2022-12-18T03:39:51;102462.91;;;0.05;50.13
13050;BME280;6591;51.446;5.404;2022-12-18T03:42:33;102457.66;;;0.03;49.59
13050;BME280;6591;51.446;5.404;2022-12-18T03:45:20;102459.38;;;0.03;49.94
13050;BME280;6591;51.446;5.404;2022-12-18T03:48:27;102455.78;;;-0.03;49.87
13050;BME280;6591;51.446;5.404;2022-12-18T03:51:06;102453.13;;;-0.04;49.70
13050;BME280;6591;51.446;5.404;2022-12-18T03:53:57;102448.63;;;-0.10;49.73
13050;BME280;6591;51.446;5.404;2022-12-18T03:56:35;102448.56;;;-0.13;49.77
13050;BME280;6591;51.446;5.404;2022-12-18T03:59:06;102437.25;;;-0.13;50.00
13050;BME280;6591;51.446;5.404;2022-12-18T04:01:40;102431.97;;;-0.15;50.43
13050;BME280;6591;51.446;5.404;2022-12-18T04:04:14;102425.00;;;-0.16;50.28
13050;BME280;6591;51.446;5.404;2022-12-18T04:06:46;102415.44;;;-0.15;50.49
13050;BME280;6591;51.446;5.404;2022-12-18T04:09:19;102412.81;;;-0.15;50.52
13050;BME280;6591;51.446;5.404;2022-12-18T04:11:47;102415.47;;;-0.14;50.29
13050;BME280;6591;51.446;5.404;2022-12-18T04:14:15;102407.69;;;-0.12;50.50
13050;BME280;6591;51.446;5.404;2022-12-18T04:16:47;102405.13;;;-0.11;50.84
13050;BME280;6591;51.446;5.404;2022-12-18T04:19:16;102402.53;;;-0.09;50.41
13050;BME280;6591;51.446;5.404;2022-12-18T04:21:46;102388.66;;;-0.08;50.63
13050;BME280;6591;51.446;5.404;2022-12-18T04:24:13;102384.28;;;-0.09;50.63
13050;BME280;6591;51.446;5.404;2022-12-18T04:26:49;102393.88;;;-0.08;50.21
13050;BME280;6591;51.446;5.404;2022-12-18T04:29:21;102402.59;;;-0.08;50.87
13050;BME280;6591;51.446;5.404;2022-12-18T04:31:48;102404.34;;;-0.07;50.46
13050;BME280;6591;51.446;5.404;2022-12-18T04:34:16;102408.75;;;-0.06;50.52
13050;BME280;6591;51.446;5.404;2022-12-18T04:36:49;102408.75;;;-0.06;50.23
13050;BME280;6591;51.446;5.404;2022-12-18T04:39:18;102413.91;;;-0.07;50.20
13050;BME280;6591;51.446;5.404;2022-12-18T04:41:47;102407.81;;;-0.08;50.31
13050;BME280;6591;51.446;5.404;2022-12-18T04:44:14;102422.59;;;-0.08;50.06
13050;BME280;6591;51.446;5.404;2022-12-18T04:46:42;102426.91;;;-0.09;49.76
13050;BME280;6591;51.446;5.404;2022-12-18T04:49:09;102431.25;;;-0.09;50.09
13050;BME280;6591;51.446;5.404;2022-12-18T04:51:37;102436.47;;;-0.11;50.04
13050;BME280;6591;51.446;5.404;2022-12-18T04:54:04;102433.75;;;-0.14;49.61
13050;BME280;6591;51.446;5.404;2022-12-18T04:56:32;102432.81;;;-0.16;49.66
13050;BME280;6591;51.446;5.404;2022-12-18T04:58:59;102437.19;;;-0.16;50.17
13050;BME280;6591;51.446;5.404;2022-12-18T05:01:26;102436.31;;;-0.17;50.46
13050;BME280;6591;51.446;5.404;2022-12-18T05:04:01;102437.13;;;-0.18;50.45
13050;BME280;6591;51.446;5.404;2022-12-18T05:06:28;102432.81;;;-0.16;50.20
13050;BME280;6591;51.446;5.404;2022-12-18T05:08:55;102436.31;;;-0.17;50.07
13050;BME280;6591;51.446;5.404;2022-12-18T05:11:22;102438.03;;;-0.17;50.24
13050;BME280;6591;51.446;5.404;2022-12-18T05:13:50;102438.03;;;-0.17;50.08
13050;BME280;6591;51.446;5.404;2022-12-18T05:16:17;102440.66;;;-0.16;50.33
13050;BME280;6591;51.446;5.404;2022-12-18T05:18:44;102440.69;;;-0.14;50.35
13050;BME280;6591;51.446;5.404;2022-12-18T05:21:11;102445.06;;;-0.13;50.00
13050;BME280;6591;51.446;5.404;2022-12-18T05:23:38;102441.63;;;-0.12;50.66
13050;BME280;6591;51.446;5.404;2022-12-18T05:26:06;102433.81;;;-0.12;50.18
13050;BME280;6591;51.446;5.404;2022-12-18T05:28:36;102435.53;;;-0.13;50.37
13050;BME280;6591;51.446;5.404;2022-12-18T05:31:04;102431.16;;;-0.14;50.07
13050;BME280;6591;51.446;5.404;2022-12-18T05:33:34;102427.66;;;-0.14;49.99
13050;BME280;6591;51.446;5.404;2022-12-18T05:36:04;102436.34;;;-0.14;50.05
13050;BME280;6591;51.446;5.404;2022-12-18T05:38:35;102430.25;;;-0.14;50.26
13050;BME280;6591;51.446;5.404;2022-12-18T05:41:03;102420.72;;;-0.14;50.47
13050;BME280;6591;51.446;5.404;2022-12-18T05:43:31;102409.44;;;-0.13;50.65
13050;BME280;6591;51.446;5.404;2022-12-18T05:46:03;102418.13;;;-0.12;50.21
13050;BME280;6591;51.446;5.404;2022-12-18T05:48:30;102428.63;;;-0.09;50.49
13050;BME280;6591;51.446;5.404;2022-12-18T05:51:05;102419.94;;;-0.10;50.28
13050;BME280;6591;51.446;5.404;2022-12-18T05:53:33;102419.09;;;-0.09;50.21
13050;BME280;6591;51.446;5.404;2022-12-18T05:56:03;102412.09;;;-0.10;50.38
13050;BME280;6591;51.446;5.404;2022-12-18T05:58:31;102412.97;;;-0.09;50.16
13050;BME280;6591;51.446;5.404;2022-12-18T06:01:25;102412.88;;;-0.14;50.30
13050;BME280;6591;51.446;5.404;2022-12-18T06:03:53;102406.81;;;-0.13;50.14
13050;BME280;6591;51.446;5.404;2022-12-18T06:06:27;102405.03;;;-0.14;49.66
13050;BME280;6591;51.446;5.404;2022-12-18T06:08:55;102400.66;;;-0.16;50.03
13050;BME280;6591;51.446;5.404;2022-12-18T06:11:26;102407.56;;;-0.18;49.89
13050;BME280;6591;51.446;5.404;2022-12-18T06:13:55;102413.56;;;-0.21;49.76
13050;BME280;6591;51.446;5.404;2022-12-18T06:16:26;102417.84;;;-0.24;50.17
13050;BME280;6591;51.446;5.404;2022-12-18T06:19:00;102420.41;;;-0.26;50.50
13050;BME280;6591;51.446;5.404;2022-12-18T06:21:28;102417.78;;;-0.26;50.25
13050;BME280;6591;51.446;5.404;2022-12-18T06:23:55;102424.78;;;-0.25;49.71
13050;BME280;6591;51.446;5.404;2022-12-18T06:26:23;102423.91;;;-0.25;49.96
13050;BME280;6591;51.446;5.404;2022-12-18T06:28:54;102422.16;;;-0.26;50.27
13050;BME280;6591;51.446;5.404;2022-12-18T06:31:21;102416.06;;;-0.27;49.95
13050;BME280;6591;51.446;5.404;2022-12-18T06:33:48;102419.50;;;-0.28;49.98
13050;BME280;6591;51.446;5.404;2022-12-18T06:36:15;102410.69;;;-0.31;49.81
13050;BME280;6591;51.446;5.404;2022-12-18T06:38:44;102416.78;;;-0.32;49.56
13050;BME280;6591;51.446;5.404;2022-12-18T06:41:14;102415.00;;;-0.33;49.96
13050;BME280;6591;51.446;5.404;2022-12-18T06:43:42;102414.13;;;-0.34;49.91
13050;BME280;6591;51.446;5.404;2022-12-18T06:46:10;102407.13;;;-0.35;49.46
13050;BME280;6591;51.446;5.404;2022-12-18T06:48:37;102404.47;;;-0.36;49.78
13050;BME280;6591;51.446;5.404;2022-12-18T06:51:05;102399.25;;;-0.38;50.07
13050;BME280;6591;51.446;5.404;2022-12-18T06:53:33;102408.81;;;-0.38;50.05
13050;BME280;6591;51.446;5.404;2022-12-18T06:56:05;102409.59;;;-0.41;50.00
13050;BME280;6591;51.446;5.404;2022-12-18T06:58:38;102400.03;;;-0.40;50.04
13050;BME280;6591;51.446;5.404;2022-12-18T07:01:08;102404.38;;;-0.41;49.94
13050;BME280;6591;51.446;5.404;2022-12-18T07:03:40;102404.38;;;-0.41;50.09
13050;BME280;6591;51.446;5.404;2022-12-18T07:06:18;102409.59;;;-0.41;49.69
13050;BME280;6591;51.446;5.404;2022-12-18T07:08:48;102407.00;;;-0.41;49.92
13050;BME280;6591;51.446;5.404;2022-12-18T07:11:16;102392.22;;;-0.42;50.24
13050;BME280;6591;51.446;5.404;2022-12-18T07:13:44;102382.63;;;-0.42;50.24
13050;BME280;6591;51.446;5.404;2022-12-18T07:16:15;102386.09;;;-0.43;49.85
13050;BME280;6591;51.446;5.404;2022-12-18T07:18:51;102382.63;;;-0.42;49.91
13050;BME280;6591;51.446;5.404;2022-12-18T07:21:20;102371.34;;;-0.42;50.07
13050;BME280;6591;51.446;5.404;2022-12-18T07:23:47;102359.16;;;-0.42;50.30
13050;BME280;6591;51.446;5.404;2022-12-18T07:26:18;102340.94;;;-0.40;50.62
13050;BME280;6591;51.446;5.404;2022-12-18T07:28:46;102331.44;;;-0.38;50.41
13050;BME280;6591;51.446;5.404;2022-12-18T07:31:17;102331.44;;;-0.36;50.37
13050;BME280;6591;51.446;5.404;2022-12-18T07:33:47;102334.16;;;-0.33;50.69
13050;BME280;6591;51.446;5.404;2022-12-18T07:36:15;102337.66;;;-0.31;50.65
13050;BME280;6591;51.446;5.404;2022-12-18T07:38:42;102339.47;;;-0.29;50.76
13050;BME280;6591;51.446;5.404;2022-12-18T07:41:13;102329.97;;;-0.27;50.42
13050;BME280;6591;51.446;5.404;2022-12-18T07:43:41;102330.84;;;-0.25;50.13
13050;BME280;6591;51.446;5.404;2022-12-18T07:46:10;102324.84;;;-0.22;50.42
13050;BME280;6591;51.446;5.404;2022-12-18T07:48:40;102307.47;;;-0.20;50.86
13050;BME280;6591;51.446;5.404;2022-12-18T07:51:12;102306.72;;;-0.16;50.46
13050;BME280;6591;51.446;5.404;2022-12-18T07:53:40;102299.88;;;-0.11;51.30
13050;BME280;6591;51.446;5.404;2022-12-18T07:56:11;102307.78;;;-0.07;50.76
13050;BME280;6591;51.446;5.404;2022-12-18T07:58:58;102296.63;;;0.00;51.72
13050;BME280;6591;51.446;5.404;2022-12-18T08:01:28;102292.47;;;0.09;51.44
13050;BME280;6591;51.446;5.404;2022-12-18T08:03:55;102298.66;;;0.14;51.60
13050;BME280;6591;51.446;5.404;2022-12-18T08:06:22;102299.69;;;0.22;51.50
13050;BME280;6591;51.446;5.404;2022-12-18T08:08:52;102305.88;;;0.27;51.56
13050;BME280;6591;51.446;5.404;2022-12-18T08:11:20;102309.56;;;0.36;51.33
13050;BME280;6591;51.446;5.404;2022-12-18T08:13:48;102311.44;;;0.43;51.48
13050;BME280;6591;51.446;5.404;2022-12-18T08:16:15;102312.44;;;0.50;51.83
13050;BME280;6591;51.446;5.404;2022-12-18T08:18:42;102308.19;;;0.55;51.39
13050;BME280;6591;51.446;5.404;2022-12-18T08:21:19;102305.69;;;0.61;51.25
13050;BME280;6591;51.446;5.404;2022-12-18T08:23:50;102317.13;;;0.66;51.42
13050;BME280;6591;51.446;5.404;2022-12-18T08:26:22;102313.75;;;0.72;51.21
13050;BME280;6591;51.446;5.404;2022-12-18T08:28:50;102314.75;;;0.78;51.26
13050;BME280;6591;51.446;5.404;2022-12-18T08:31:18;102305.25;;;0.85;51.37
13050;BME280;6591;51.446;5.404;2022-12-18T08:33:49;102310.59;;;0.91;51.58
13050;BME280;6591;51.446;5.404;2022-12-18T08:36:16;102312.47;;;0.98;51.17
13050;BME280;6591;51.446;5.404;2022-12-18T08:38:43;102309.97;;;1.06;51.87
13050;BME280;6591;51.446;5.404;2022-12-18T08:41:13;102301.34;;;1.11;51.80
13050;BME280;6591;51.446;5.404;2022-12-18T08:43:41;102285.78;;;1.17;51.63
13050;BME280;6591;51.446;5.404;2022-12-18T08:46:39;102282.41;;;1.24;51.45
13050;BME280;6591;51.446;5.404;2022-12-18T08:49:08;102282.53;;;1.31;50.98
13050;BME280;6591;51.446;5.404;2022-12-18T08:51:36;102279.09;;;1.36;51.68
13050;BME280;6591;51.446;5.404;2022-12-18T08:54:04;102283.53;;;1.42;51.37
13050;BME280;6591;51.446;5.404;2022-12-18T08:56:32;102274.03;;;1.47;51.55
13050;BME280;6591;51.446;5.404;2022-12-18T08:58:59;102277.63;;;1.53;51.73
13050;BME280;6591;51.446;5.404;2022-12-18T09:01:27;102270.72;;;1.58;52.10
13050;BME280;6591;51.446;5.404;2022-12-18T09:03:54;102262.06;;;1.64;51.99
13050;BME280;6591;51.446;5.404;2022-12-18T09:06:22;102269.19;;;1.73;52.31
13050;BME280;6591;51.446;5.404;2022-12-18T09:08:49;102271.91;;;1.80;51.68
13050;BME280;6591;51.446;5.404;2022-12-18T09:11:23;102282.50;;;1.88;51.34
13050;BME280;6591;51.446;5.404;2022-12-18T09:13:51;102289.56;;;1.96;51.99
13050;BME280;6591;51.446;5.404;2022-12-18T09:16:19;102299.28;;;2.05;52.07
13050;BME280;6591;51.446;5.404;2022-12-18T09:18:47;102298.53;;;2.13;52.45
13050;BME280;6591;51.446;5.404;2022-12-18T09:21:19;102300.34;;;2.21;51.94
13050;BME280;6591;51.446;5.404;2022-12-18T09:23:51;102301.38;;;2.30;52.37
13050;BME280;6591;51.446;5.404;2022-12-18T09:26:18;102291.88;;;2.40;51.56
13050;BME280;6591;51.446;5.404;2022-12-18T09:28:45;102273.59;;;2.47;51.77
13050;BME280;6591;51.446;5.404;2022-12-18T09:31:17;102274.56;;;2.54;51.75
13050;BME280;6591;51.446;5.404;2022-12-18T09:33:44;102261.53;;;2.62;52.04
13050;BME280;6591;51.446;5.404;2022-12-18T09:36:15;102268.56;;;2.69;51.75
13050;BME280;6591;51.446;5.404;2022-12-18T09:38:43;102263.44;;;2.76;52.06
13050;BME280;6591;51.446;5.404;2022-12-18T09:41:43;102260.84;;;2.81;52.53
13050;BME280;6591;51.446;5.404;2022-12-18T09:47:17;102256.59;;;2.95;52.18
13050;BME280;6591;51.446;5.404;2022-12-18T09:49:51;102259.31;;;3.07;51.93
13050;BME280;6591;51.446;5.404;2022-12-18T09:52:44;102245.38;;;3.14;52.16
13050;BME280;6591;51.446;5.404;2022-12-18T09:55:43;102232.34;;;3.23;52.50
13050;BME280;6591;51.446;5.404;2022-12-18T10:00:45;102249.97;;;3.42;52.46
13050;BME280;6591;51.446;5.404;2022-12-18T10:03:15;102250.00;;;3.52;52.25
13050;BME280;6591;51.446;5.404;2022-12-18T10:12:16;102240.53;;;3.78;53.14
13050;BME280;6591;51.446;5.404;2022-12-18T10:15:18;102250.25;;;3.91;52.93
13050;BME280;6591;51.446;5.404;2022-12-18T10:18:01;102245.94;;;4.02;52.83
13050;BME280;6591;51.446;5.404;2022-12-18T10:20:52;102238.06;;;4.14;52.82
13050;BME280;6591;51.446;5.404;2022-12-18T10:26:10;102236.38;;;4.36;53.37
13050;BME280;6591;51.446;5.404;2022-12-18T10:28:40;102229.41;;;4.47;52.81
13050;BME280;6591;51.446;5.404;2022-12-18T10:31:21;102225.91;;;4.56;52.71
13050;BME280;6591;51.446;5.404;2022-12-18T10:33:53;102215.41;;;4.66;53.06
13050;BME280;6591;51.446;5.404;2022-12-18T10:36:23;102197.03;;;4.76;52.83
13050;BME280;6591;51.446;5.404;2022-12-18T10:38:51;102188.22;;;4.83;52.89
13050;BME280;6591;51.446;5.404;2022-12-18T10:43:48;102184.75;;;4.96;52.61
13050;BME280;6591;51.446;5.404;2022-12-18T10:46:20;102183.84;;;5.01;52.81
13050;BME280;6591;51.446;5.404;2022-12-18T10:51:29;102182.94;;;5.15;52.63
13050;BME280;6591;51.446;5.404;2022-12-18T10:54:13;102182.97;;;5.22;52.89
13050;BME280;6591;51.446;5.404;2022-12-18T10:56:41;102180.28;;;5.31;52.66
13050;BME280;6591;51.446;5.404;2022-12-18T10:59:16;102166.25;;;5.37;52.89
13050;BME280;6591;51.446;5.404;2022-12-18T11:01:54;102160.97;;;5.43;53.00
13050;BME280;6591;51.446;5.404;2022-12-18T11:04:29;102156.56;;;5.49;52.77
13050;BME280;6591;51.446;5.404;2022-12-18T11:09:34;102153.00;;;5.60;53.01
13050;BME280;6591;51.446;5.404;2022-12-18T11:12:16;102159.13;;;5.63;52.58
13050;BME280;6591;51.446;5.404;2022-12-18T11:14:48;102159.13;;;5.69;52.76
13050;BME280;6591;51.446;5.404;2022-12-18T11:17:31;102159.97;;;5.74;52.64
13050;BME280;6591;51.446;5.404;2022-12-18T11:20:20;102162.59;;;5.77;52.59
13050;BME280;6591;51.446;5.404;2022-12-18T11:23:10;102147.63;;;5.84;52.53
13050;BME280;6591;51.446;5.404;2022-12-18T11:25:39;102138.84;;;5.91;52.51
13050;BME280;6591;51.446;5.404;2022-12-18T11:28:51;102122.13;;;5.93;52.39
13050;BME280;6591;51.446;5.404;2022-12-18T11:31:28;102123.84;;;6.01;52.97
13050;BME280;6591;51.446;5.404;2022-12-18T11:34:01;102117.69;;;6.06;53.01
13050;BME280;6591;51.446;5.404;2022-12-18T11:36:49;102125.56;;;6.12;52.89
13050;BME280;6591;51.446;5.404;2022-12-18T11:42:31;102126.38;;;6.19;52.80
13050;BME280;6591;51.446;5.404;2022-12-18T11:50:29;102130.66;;;6.36;52.58
13050;BME280;6591;51.446;5.404;2022-12-18T11:53:00;102116.53;;;6.42;53.00
13050;BME280;6591;51.446;5.404;2022-12-18T11:58:58;102113.81;;;6.53;52.85
13050;BME280;6591;51.446;5.404;2022-12-18T12:02:16;102109.38;;;6.59;52.52
13050;BME280;6591;51.446;5.404;2022-12-18T12:07:42;102095.22;;;6.68;52.53
13050;BME280;6591;51.446;5.404;2022-12-18T12:21:57;102091.59;;;6.79;52.24
13050;BME280;6591;51.446;5.404;2022-12-18T12:25:00;102072.19;;;6.80;51.93
13050;BME280;6591;51.446;5.404;2022-12-18T12:33:55;102058.94;;;6.87;52.66
13050;BME280;6591;51.446;5.404;2022-12-18T12:36:52;102058.88;;;6.93;52.46
13050;BME280;6591;51.446;5.404;2022-12-18T12:39:34;102048.28;;;6.97;52.82
13050;BME280;6591;51.446;5.404;2022-12-18T12:42:16;102046.47;;;7.02;52.45
13050;BME280;6591;51.446;5.404;2022-12-18T12:45:16;102039.41;;;7.04;52.54
13050;BME280;6591;51.446;5.404;2022-12-18T12:47:49;102043.75;;;7.10;52.22
13050;BME280;6591;51.446;5.404;2022-12-18T12:50:20;102031.38;;;7.12;52.36
13050;BME280;6591;51.446;5.404;2022-12-18T12:52:55;102034.88;;;7.17;52.29
13050;BME280;6591;51.446;5.404;2022-12-18T12:55:29;102036.56;;;7.21;52.32
13050;BME280;6591;51.446;5.404;2022-12-18T12:59:02;102026.06;;;7.16;51.77
13050;BME280;6591;51.446;5.404;2022-12-18T13:07:32;102017.22;;;7.17;51.58
13050;BME280;6591;51.446;5.404;2022-12-18T13:10:23;102009.28;;;7.19;51.93
13050;BME280;6591;51.446;5.404;2022-12-18T13:13:15;101998.66;;;7.23;51.44
13050;BME280;6591;51.446;5.404;2022-12-18T13:16:05;102003.94;;;7.23;51.25
13050;BME280;6591;51.446;5.404;2022-12-18T13:18:34;102000.38;;;7.28;52.01
13050;BME280;6591;51.446;5.404;2022-12-18T13:21:27;101991.63;;;7.26;51.52
13050;BME280;6591;51.446;5.404;2022-12-18T13:23:56;101993.31;;;7.28;51.71
13050;BME280;6591;51.446;5.404;2022-12-18T13:28:57;101991.56;;;7.29;51.53
13050;BME280;6591;51.446;5.404;2022-12-18T13:34:25;101994.25;;;7.27;51.59
13050;BME280;6591;51.446;5.404;2022-12-18T13:36:57;101992.44;;;7.29;51.50
13050;BME280;6591;51.446;5.404;2022-12-18T13:39:43;101993.31;;;7.31;51.67
13050;BME280;6591;51.446;5.404;2022-12-18T13:44:58;101987.97;;;7.34;51.64
13050;BME280;6591;51.446;5.404;2022-12-18T13:47:36;101980.97;;;7.32;51.19
13050;BME280;6591;51.446;5.404;2022-12-18T13:50:25;101975.69;;;7.32;51.24
13050;BME280;6591;51.446;5.404;2022-12-18T13:53:03;101971.22;;;7.35;51.05
13050;BME280;6591;51.446;5.404;2022-12-18T13:55:32;101972.97;;;7.38;51.33
13050;BME280;6591;51.446;5.404;2022-12-18T13:58:06;101976.44;;;7.38;51.84
13050;BME280;6591;51.446;5.404;2022-12-18T14:00:33;101976.44;;;7.41;51.54
13050;BME280;6591;51.446;5.404;2022-12-18T14:03:01;101978.13;;;7.44;51.47
13050;BME280;6591;51.446;5.404;2022-12-18T14:05:35;101971.97;;;7.45;51.44
13050;BME280;6591;51.446;5.404;2022-12-18T14:08:12;101961.38;;;7.48;51.08
13050;BME280;6591;51.446;5.404;2022-12-18T14:10:47;101962.28;;;7.45;51.29
13050;BME280;6591;51.446;5.404;2022-12-18T14:13:35;101969.31;;;7.46;51.47
13050;BME280;6591;51.446;5.404;2022-12-18T14:16:06;101968.41;;;7.47;51.45
13050;BME280;6591;51.446;5.404;2022-12-18T14:18:54;101969.31;;;7.46;50.98
13050;BME280;6591;51.446;5.404;2022-12-18T14:21:49;101964.03;;;7.46;51.00
13050;BME280;6591;51.446;5.404;2022-12-18T14:24:21;101960.50;;;7.47;51.24
13050;BME280;6591;51.446;5.404;2022-12-18T14:26:50;101959.63;;;7.47;51.46
13050;BME280;6591;51.446;5.404;2022-12-18T14:29:27;101962.28;;;7.45;50.85
13050;BME280;6591;51.446;5.404;2022-12-18T14:32:24;101955.28;;;7.41;50.92
13050;BME280;6591;51.446;5.404;2022-12-18T14:34:53;101961.41;;;7.43;51.38
13050;BME280;6591;51.446;5.404;2022-12-18T14:37:26;101964.94;;;7.44;51.11
13050;BME280;6591;51.446;5.404;2022-12-18T14:40:01;101969.41;;;7.40;50.98
13050;BME280;6591;51.446;5.404;2022-12-18T14:42:37;101958.81;;;7.40;51.31
13050;BME280;6591;51.446;5.404;2022-12-18T14:45:33;101965.94;;;7.37;51.07
13050;BME280;6591;51.446;5.404;2022-12-18T14:51:05;101954.50;;;7.35;51.05
13050;BME280;6591;51.446;5.404;2022-12-18T14:53:49;101958.06;;;7.32;51.13
13050;BME280;6591;51.446;5.404;2022-12-18T14:56:31;101964.22;;;7.33;50.51
13050;BME280;6591;51.446;5.404;2022-12-18T14:59:02;101970.34;;;7.33;51.33
13050;BME280;6591;51.446;5.404;2022-12-18T15:01:37;101971.28;;;7.32;51.10
13050;BME280;6591;51.446;5.404;2022-12-18T15:04:30;101957.22;;;7.29;50.91
13050;BME280;6591;51.446;5.404;2022-12-18T15:07:05;101957.19;;;7.32;50.83
13050;BME280;6591;51.446;5.404;2022-12-18T15:09:34;101960.72;;;7.32;50.57
13050;BME280;6591;51.446;5.404;2022-12-18T15:12:02;101953.69;;;7.31;51.27
13050;BME280;6591;51.446;5.404;2022-12-18T15:14:33;101949.28;;;7.30;51.02
13050;BME280;6591;51.446;5.404;2022-12-18T15:17:26;101950.22;;;7.26;50.93
13050;BME280;6591;51.446;5.404;2022-12-18T15:20:02;101939.69;;;7.23;50.85